Time;durP1;ratioP1;P1;durP2;ratioP2;P2;SDS_P1;SDS_P2;PMS_P1;PMS_P2;Temp;Humidity;BMP_temperature;BMP_pressure;BME280_temperature;BME280_humidity;BME280_pressure;Samples;Min_cycle;Max_cycle;Signal;HPM_P1;HPM_P2
2022/05/03 00:01:42;;;;;;;6.97;3.63;;;;;;;7.28;69.59;101897.13;4974696;28;20693;-69
2022/05/03 00:04:26;;;;;;;5.95;3.17;;;;;;;7.21;70.40;101887.63;4955541;28;20050;-68
2022/05/03 00:07:14;;;;;;;5.07;2.83;;;;;;;7.11;70.28;101887.06;4973888;28;20074;-68
2022/05/03 00:09:42;;;;;;;5.18;3.55;;;;;;;7.11;70.99;101884.41;4924353;28;20088;-69
2022/05/03 00:12:11;;;;;;;5.07;3.50;;;;;;;7.12;70.73;101891.44;4973319;28;20051;-68
2022/05/03 00:14:42;;;;;;;6.20;3.47;;;;;;;7.05;70.40;101889.03;4974834;28;20073;-68
2022/05/03 00:17:08;;;;;;;10.40;3.40;;;;;;;6.96;70.92;101888.41;4974234;28;20057;-68
2022/05/03 00:19:34;;;;;;;4.50;2.90;;;;;;;7.03;70.94;101886.44;4973945;28;20034;-68
2022/05/03 00:21:59;;;;;;;4.93;3.42;;;;;;;7.13;70.32;101885.25;4961043;28;20461;-68
2022/05/03 00:24:25;;;;;;;4.47;3.05;;;;;;;7.10;70.79;101877.38;4954162;28;20043;-68
2022/05/03 00:26:51;;;;;;;4.28;3.42;;;;;;;7.06;71.13;101875.72;4937433;28;20038;-68
2022/05/03 00:29:17;;;;;;;5.03;3.17;;;;;;;7.03;71.44;101882.91;4953873;28;20043;-68
2022/05/03 00:31:44;;;;;;;4.65;3.22;;;;;;;6.97;71.21;101873.34;4954650;28;20039;-68
2022/05/03 00:34:10;;;;;;;5.03;3.42;;;;;;;6.63;72.03;101878.88;4952862;28;20059;-68
2022/05/03 00:36:36;;;;;;;5.28;3.55;;;;;;;6.58;72.13;101878.13;4954197;28;20035;-68
2022/05/03 00:39:01;;;;;;;4.90;2.88;;;;;;;6.22;73.33;101883.56;4961970;28;20042;-68
2022/05/03 00:41:59;;;;;;;4.55;2.90;;;;;;;6.38;73.33;101876.06;4973684;28;20058;-68
2022/05/03 00:47:20;;;;;;;5.78;3.58;;;;;;;6.31;73.58;101880.66;4972984;28;20133;-68
2022/05/03 00:50:04;;;;;;;5.95;3.47;;;;;;;6.12;73.99;101885.59;4973802;28;20068;-68
2022/05/03 00:52:47;;;;;;;6.70;3.50;;;;;;;6.12;74.28;101879.44;4973590;28;20053;-68
2022/05/03 00:55:38;;;;;;;6.68;4.38;;;;;;;6.28;74.09;101878.13;4973260;28;20046;-68
2022/05/03 00:58:30;;;;;;;7.68;4.07;;;;;;;6.27;73.65;101880.78;4973426;28;20046;-68
2022/05/03 01:01:05;;;;;;;5.97;3.22;;;;;;;6.33;73.92;101880.63;4974421;28;20088;-68
2022/05/03 01:04:00;;;;;;;8.40;4.13;;;;;;;6.41;73.52;101873.31;4974085;28;20046;-68
2022/05/03 01:06:44;;;;;;;6.93;3.50;;;;;;;6.45;73.90;101878.47;4973025;28;20103;-68
2022/05/03 01:09:10;;;;;;;6.22;4.03;;;;;;;6.38;74.28;101881.38;4976496;28;20093;-68
2022/05/03 01:11:52;;;;;;;7.68;3.50;;;;;;;6.36;74.21;101884.03;4976849;28;20034;-68
2022/05/03 01:14:52;;;;;;;6.00;3.35;;;;;;;6.36;73.79;101885.81;4976953;28;20104;-68
2022/05/03 01:17:29;;;;;;;5.60;3.72;;;;;;;6.30;74.97;101881.59;4976375;28;20062;-68
2022/05/03 01:20:03;;;;;;;8.60;3.53;;;;;;;6.39;74.28;101875.16;4976066;28;20042;-68
2022/05/03 01:23:08;;;;;;;6.15;4.07;;;;;;;6.25;74.32;101877.34;4959143;28;20043;-68
2022/05/03 01:25:54;;;;;;;8.93;3.80;;;;;;;6.25;75.20;101879.97;4954890;28;20080;-67
2022/05/03 01:28:30;;;;;;;9.43;4.50;;;;;;;6.10;75.13;101886.56;4959660;28;20042;-68
2022/05/03 01:30:58;;;;;;;6.35;3.70;;;;;;;6.12;75.66;101880.31;4958461;28;20043;-67
2022/05/03 01:33:34;;;;;;;6.30;3.80;;;;;;;5.99;76.38;101884.22;4959089;28;20027;-67
2022/05/03 01:36:03;;;;;;;7.22;4.10;;;;;;;6.22;75.10;101878.28;4959104;28;20047;-67
2022/05/03 01:38:53;;;;;;;6.65;3.92;;;;;;;6.13;75.33;101878.56;4945169;28;20141;-68
2022/05/03 01:41:46;;;;;;;8.77;4.35;;;;;;;5.77;76.52;101881.25;4978037;28;20188;-67
2022/05/03 01:44:37;;;;;;;7.35;4.13;;;;;;;5.74;76.05;101883.13;4978675;28;20050;-68
2022/05/03 01:47:31;;;;;;;5.55;3.72;;;;;;;5.83;76.10;101872.31;4959483;28;20046;-67
2022/05/03 01:50:19;;;;;;;7.10;4.45;;;;;;;6.02;76.57;101870.88;4977780;28;20042;-67
2022/05/03 01:53:03;;;;;;;9.27;4.30;;;;;;;5.75;76.66;101875.13;4977577;28;20114;-67
2022/05/03 01:55:49;;;;;;;6.80;3.88;;;;;;;5.89;76.86;101865.06;4960120;28;20043;-67
2022/05/03 01:58:25;;;;;;;6.75;3.90;;;;;;;5.84;76.17;101871.38;4977262;28;20168;-68
2022/05/03 02:01:08;;;;;;;7.13;4.18;;;;;;;6.04;76.81;101869.09;4959859;28;20863;-67
2022/05/03 02:03:40;;;;;;;9.68;4.25;;;;;;;6.03;76.17;101867.34;4977202;28;20035;-68
2022/05/03 02:06:16;;;;;;;4.97;3.55;;;;;;;5.96;76.88;101869.28;4978076;28;20501;-67
2022/05/03 02:08:50;;;;;;;7.07;4.25;;;;;;;5.83;76.92;101867.00;4978520;28;20038;-68
2022/05/03 02:12:02;;;;;;;6.78;4.28;;;;;;;5.80;77.79;101870.59;4977641;28;20042;-67
2022/05/03 02:14:46;;;;;;;5.63;3.70;;;;;;;5.38;77.13;101873.47;4978016;28;20487;-67
2022/05/03 02:17:42;;;;;;;9.43;4.35;;;;;;;5.44;78.09;101868.00;4977777;28;20050;-67
2022/05/03 02:20:29;;;;;;;8.40;4.45;;;;;;;5.47;78.66;101869.69;4977032;28;20112;-67
2022/05/03 02:23:32;;;;;;;11.65;4.78;;;;;;;5.42;78.63;101872.47;4959289;28;20150;-67
2022/05/03 02:26:31;;;;;;;10.43;4.63;;;;;;;5.33;79.51;101869.19;4958885;28;20468;-68
2022/05/03 02:29:11;;;;;;;11.68;4.78;;;;;;;5.50;78.90;101874.03;4958010;28;20041;-68
2022/05/03 02:31:58;;;;;;;7.90;5.05;;;;;;;5.55;78.60;101870.38;4957751;28;20043;-68
2022/05/03 02:34:31;;;;;;;10.50;4.80;;;;;;;5.55;78.74;101866.84;4957770;28;20027;-69
2022/05/03 02:37:03;;;;;;;7.32;5.32;;;;;;;5.57;78.86;101865.03;4958584;28;20124;-68
2022/05/03 02:39:31;;;;;;;8.88;5.40;;;;;;;5.66;78.63;101857.72;4956749;28;20042;-69
2022/05/03 02:41:59;;;;;;;8.60;4.85;;;;;;;5.51;79.67;101866.06;4957367;28;20150;-68
2022/05/03 02:44:28;;;;;;;10.70;4.90;;;;;;;5.54;79.01;101866.00;4957061;28;20109;-68
2022/05/03 02:47:05;;;;;;;7.28;4.60;;;;;;;5.43;79.13;101866.28;4956533;28;20041;-68
2022/05/03 02:49:37;;;;;;;9.93;4.88;;;;;;;5.36;79.53;101872.59;4956246;28;20133;-68
2022/05/03 02:52:25;;;;;;;9.15;5.13;;;;;;;5.28;79.86;101871.94;4957129;28;20127;-69
2022/05/03 02:55:06;;;;;;;8.50;5.20;;;;;;;5.36;80.27;101871.75;4958685;28;20101;-68
2022/05/03 02:58:04;;;;;;;8.68;5.25;;;;;;;5.39;79.83;101867.25;4942529;28;20051;-69
2022/05/03 03:03:38;;;;;;;9.82;5.70;;;;;;;5.16;81.52;101865.16;4956681;28;20117;-68
2022/05/03 03:06:04;;;;;;;9.45;5.30;;;;;;;5.28;81.26;101865.78;4956299;28;20047;-68
2022/05/03 03:08:42;;;;;;;8.43;5.10;;;;;;;5.30;81.86;101871.91;4955858;28;20043;-68
2022/05/03 03:11:15;;;;;;;8.60;5.50;;;;;;;5.33;81.58;101858.63;4956870;28;20852;-68
2022/05/03 03:14:00;;;;;;;11.75;6.05;;;;;;;5.42;80.99;101856.59;4975906;28;20049;-68
2022/05/03 03:16:31;;;;;;;10.55;5.93;;;;;;;5.40;80.81;101868.13;4975878;28;20042;-68
2022/05/03 03:18:58;;;;;;;11.10;6.05;;;;;;;5.25;81.61;101866.72;4976580;28;20053;-68
2022/05/03 03:21:30;;;;;;;10.70;5.15;;;;;;;5.40;80.27;101876.06;4967706;28;20039;-69
2022/05/03 03:23:56;;;;;;;11.27;6.17;;;;;;;5.35;81.73;101865.59;4956786;28;20085;-68
2022/05/03 03:26:26;;;;;;;9.82;5.28;;;;;;;5.40;80.84;101868.97;4956390;28;20481;-68
2022/05/03 03:28:54;;;;;;;11.13;6.68;;;;;;;5.36;81.37;101871.75;4956331;28;20107;-68
2022/05/03 03:31:22;;;;;;;12.63;6.25;;;;;;;5.47;80.67;101872.34;4955067;28;20043;-68
2022/05/03 03:33:48;;;;;;;7.78;4.90;;;;;;;5.45;80.92;101866.22;4956548;28;20504;-68
2022/05/03 03:36:16;;;;;;;10.43;5.50;;;;;;;5.44;80.32;101870.66;4955626;28;20047;-68
2022/05/03 03:38:47;;;;;;;12.73;6.00;;;;;;;5.54;79.97;101865.13;4961405;28;20038;-68
2022/05/03 03:41:12;;;;;;;10.52;5.78;;;;;;;5.48;79.86;101865.28;4975617;28;20958;-68
2022/05/03 03:43:40;;;;;;;8.45;5.72;;;;;;;5.38;80.16;101865.53;4975007;28;20069;-68
2022/05/03 03:46:06;;;;;;;8.95;5.70;;;;;;;5.24;80.89;101859.72;4974458;28;20081;-68
2022/05/03 03:48:32;;;;;;;13.70;5.70;;;;;;;5.22;81.16;101860.63;4974819;28;20038;-68
2022/05/03 03:51:00;;;;;;;9.32;5.57;;;;;;;4.96;80.91;101863.91;4975322;28;20046;-68
2022/05/03 03:53:26;;;;;;;9.90;5.25;;;;;;;4.71;79.69;101867.13;4974639;28;20042;-68
2022/05/03 03:55:53;;;;;;;10.48;6.28;;;;;;;4.64;80.86;101869.03;4957031;28;20042;-68
2022/05/03 03:58:19;;;;;;;9.07;5.22;;;;;;;4.74;81.21;101861.78;4974660;28;20676;-68
2022/05/03 04:00:46;;;;;;;11.30;6.18;;;;;;;4.66;81.52;101869.00;4975477;28;20046;-68
2022/05/03 04:03:12;;;;;;;10.55;5.53;;;;;;;4.68;81.51;101862.78;4974779;28;20038;-68
2022/05/03 04:05:37;;;;;;;7.43;4.85;;;;;;;4.53;82.46;101865.78;4957262;28;20038;-69
2022/05/03 04:08:03;;;;;;;12.63;5.80;;;;;;;4.56;81.48;101876.25;4974823;28;20424;-68
2022/05/03 04:10:29;;;;;;;10.07;6.07;;;;;;;4.45;82.76;101869.47;4975056;28;20627;-68
2022/05/03 04:12:54;;;;;;;8.88;5.43;;;;;;;4.41;83.02;101866.88;4975947;28;20918;-68
2022/05/03 04:15:20;;;;;;;10.68;5.60;;;;;;;4.30;82.43;101871.53;4974938;28;20862;-68
2022/05/03 04:17:45;;;;;;;17.90;5.90;;;;;;;4.49;81.78;101865.88;4975284;28;20042;-69
2022/05/03 04:20:12;;;;;;;9.20;5.35;;;;;;;4.62;81.83;101864.72;4974921;28;20045;-68
2022/05/03 04:22:37;;;;;;;9.98;5.95;;;;;;;4.79;80.97;101866.97;4957026;28;20046;-69
2022/05/03 04:25:04;;;;;;;9.80;5.80;;;;;;;4.91;80.76;101871.94;4954918;28;20038;-68
2022/05/03 04:27:29;;;;;;;11.70;7.10;;;;;;;5.02;80.25;101864.66;4955989;28;20047;-68
2022/05/03 04:29:58;;;;;;;10.15;6.70;;;;;;;5.16;79.71;101872.22;4954820;28;20123;-68
2022/05/03 04:32:27;;;;;;;9.63;6.00;;;;;;;5.20;79.71;101874.78;4955453;28;20051;-68
2022/05/03 04:34:53;;;;;;;9.20;4.95;;;;;;;5.46;78.97;101873.25;4955775;28;20038;-69
2022/05/03 04:37:18;;;;;;;10.60;6.35;;;;;;;6.13;77.08;101865.31;4955220;28;20050;-68
2022/05/03 04:39:44;;;;;;;10.13;5.78;;;;;;;6.87;74.78;101867.47;4968561;28;20097;-68
2022/05/03 04:42:10;;;;;;;10.98;5.93;;;;;;;8.02;70.90;101869.75;4972612;28;20052;-68
2022/05/03 04:44:36;;;;;;;9.38;5.45;;;;;;;8.60;68.79;101872.09;4955987;28;20407;-68
2022/05/03 04:47:02;;;;;;;8.73;5.47;;;;;;;8.84;67.12;101872.06;4973391;28;20034;-68
2022/05/03 04:49:27;;;;;;;7.78;4.63;;;;;;;9.32;65.78;101874.50;4957317;28;20677;-69
2022/05/03 04:51:53;;;;;;;9.57;5.07;;;;;;;8.70;67.37;101875.25;4974891;28;20845;-67
2022/05/03 04:54:18;;;;;;;8.30;5.22;;;;;;;9.30;66.44;101874.59;4972507;28;20049;-68
2022/05/03 04:56:49;;;;;;;9.57;5.40;;;;;;;9.43;65.78;101874.06;4974280;28;20132;-68
2022/05/03 04:59:14;;;;;;;9.15;5.78;;;;;;;10.08;64.54;101881.84;4973792;28;20790;-67
2022/05/03 05:01:39;;;;;;;9.48;6.28;;;;;;;10.12;64.04;101883.44;4956465;28;20090;-68
2022/05/03 05:04:05;;;;;;;8.57;5.47;;;;;;;10.51;62.99;101887.94;4973904;28;20072;-68
2022/05/03 05:06:30;;;;;;;10.60;5.25;;;;;;;10.41;62.97;101883.97;4973440;28;20116;-67
2022/05/03 05:08:56;;;;;;;9.18;6.15;;;;;;;9.88;65.00;101886.34;4974192;28;20041;-69
2022/05/03 05:11:21;;;;;;;11.43;6.20;;;;;;;10.09;64.57;101888.94;4972220;28;20022;-68
2022/05/03 05:13:47;;;;;;;11.82;6.07;;;;;;;10.01;64.59;101888.41;4973113;28;20034;-67
2022/05/03 05:16:13;;;;;;;10.73;6.28;;;;;;;10.33;64.44;101892.31;4954637;28;20106;-67
2022/05/03 05:18:38;;;;;;;11.50;5.80;;;;;;;10.80;62.67;101896.41;4973164;28;20050;-68
2022/05/03 05:21:04;;;;;;;8.48;5.72;;;;;;;10.93;62.56;101894.84;4973323;28;20084;-67
2022/05/03 05:23:29;;;;;;;10.82;6.15;;;;;;;11.33;62.41;101890.25;4974434;28;20039;-70
2022/05/03 05:25:55;;;;;;;11.52;6.85;;;;;;;11.44;61.55;101895.91;4973169;28;20051;-69
2022/05/03 05:28:22;;;;;;;12.00;6.45;;;;;;;11.34;62.05;101897.31;4973754;28;20749;-69
2022/05/03 05:30:54;;;;;;;10.65;6.13;;;;;;;11.19;63.16;101892.72;4973545;28;20092;-69
2022/05/03 05:33:20;;;;;;;10.18;6.30;;;;;;;11.82;60.77;101887.78;4971981;28;20053;-69
2022/05/03 05:35:46;;;;;;;10.00;5.97;;;;;;;11.86;60.04;101892.03;4972661;28;20905;-69
2022/05/03 05:38:16;;;;;;;14.75;7.57;;;;;;;11.36;61.94;101893.63;4972212;28;20113;-69
2022/05/03 05:40:42;;;;;;;10.02;6.63;;;;;;;11.26;62.59;101899.50;4972376;28;20826;-69
2022/05/03 05:43:08;;;;;;;13.95;6.95;;;;;;;11.65;61.59;101899.34;4971791;28;20910;-69
2022/05/03 05:45:33;;;;;;;10.07;6.65;;;;;;;11.66;61.32;101888.56;4973438;28;20050;-68
2022/05/03 05:47:58;;;;;;;12.38;6.80;;;;;;;10.99;63.46;101907.03;4972900;28;20164;-68
2022/05/03 05:50:24;;;;;;;11.77;6.63;;;;;;;11.53;62.80;101903.47;4973888;28;20799;-68
2022/05/03 05:55:36;;;;;;;10.32;6.20;;;;;;;12.18;60.79;101899.22;4976246;28;20048;-68
2022/05/03 05:58:04;;;;;;;10.63;6.80;;;;;;;12.69;59.64;101900.00;4976578;28;20124;-68
2022/05/03 06:00:31;;;;;;;14.63;6.80;;;;;;;12.77;59.26;101890.72;4977307;28;20042;-69
2022/05/03 06:02:58;;;;;;;11.55;7.13;;;;;;;12.45;59.86;101896.03;4976808;28;20853;-69
2022/05/03 06:05:23;;;;;;;11.30;6.55;;;;;;;12.82;59.49;101892.19;4975597;28;20137;-68
2022/05/03 06:07:49;;;;;;;9.50;6.10;;;;;;;13.12;58.01;101878.88;4976132;28;20735;-68
2022/05/03 06:10:14;;;;;;;10.13;6.43;;;;;;;12.77;58.58;101896.94;4973376;28;20057;-68
2022/05/03 06:12:40;;;;;;;10.65;6.70;;;;;;;12.99;58.12;101896.56;4976148;28;20085;-68
2022/05/03 06:15:06;;;;;;;7.55;5.70;;;;;;;13.40;58.03;101906.75;4976662;28;20066;-69
2022/05/03 06:17:31;;;;;;;9.13;5.75;;;;;;;12.88;57.97;101913.25;4959159;28;20058;-68
2022/05/03 06:19:57;;;;;;;9.18;6.20;;;;;;;13.49;57.46;101906.22;4976943;28;20852;-68
2022/05/03 06:22:22;;;;;;;11.52;6.40;;;;;;;13.41;56.69;101903.16;4975337;28;20057;-67
2022/05/03 06:24:48;;;;;;;10.48;6.18;;;;;;;13.74;56.04;101901.13;4975690;28;20046;-67
2022/05/03 06:27:14;;;;;;;9.73;6.30;;;;;;;13.19;57.02;101898.13;4975690;28;20045;-67
2022/05/03 06:29:42;;;;;;;9.52;6.18;;;;;;;13.35;57.31;101898.13;4958967;28;20694;-67
2022/05/03 06:32:10;;;;;;;13.02;6.40;;;;;;;13.79;55.82;101900.00;4975484;28;20081;-67
2022/05/03 06:34:36;;;;;;;9.75;5.93;;;;;;;13.95;53.92;101904.34;4959372;28;20049;-67
2022/05/03 06:37:01;;;;;;;10.15;5.80;;;;;;;13.05;56.01;101904.28;4975293;28;20050;-67
2022/05/03 06:39:26;;;;;;;8.60;5.05;;;;;;;12.66;56.26;101908.22;4962571;28;20030;-67
2022/05/03 06:41:52;;;;;;;11.00;5.72;;;;;;;13.30;56.66;101902.88;4956620;28;20047;-67
2022/05/03 06:44:17;;;;;;;10.20;5.63;;;;;;;14.24;52.31;101905.25;4955620;28;20051;-67
2022/05/03 06:46:43;;;;;;;8.15;5.28;;;;;;;14.60;53.70;101900.41;4954712;28;20043;-67
2022/05/03 06:49:10;;;;;;;10.00;6.05;;;;;;;14.76;51.77;101899.34;4953995;28;20039;-67
2022/05/03 06:51:35;;;;;;;11.93;5.50;;;;;;;14.77;52.36;101898.38;4955479;28;20127;-67
2022/05/03 06:54:02;;;;;;;7.25;5.05;;;;;;;15.16;49.47;101902.13;4955907;28;20054;-69
2022/05/03 06:56:27;;;;;;;6.93;4.28;;;;;;;14.99;48.84;101903.22;4957131;28;20055;-68
2022/05/03 06:58:53;;;;;;;7.13;4.72;;;;;;;15.08;49.87;101907.13;4957980;28;20194;-68
2022/05/03 07:01:18;;;;;;;8.90;5.03;;;;;;;14.49;52.02;101909.13;4957891;28;20074;-69
2022/05/03 07:03:43;;;;;;;8.25;4.60;;;;;;;15.08;50.93;101911.66;4956361;28;20101;-68
2022/05/03 07:06:09;;;;;;;6.13;4.57;;;;;;;14.81;49.20;101915.16;4955357;28;20039;-68
2022/05/03 07:08:35;;;;;;;5.93;4.40;;;;;;;14.88;51.25;101913.78;4971703;28;20030;-68
2022/05/03 07:11:01;;;;;;;6.57;4.65;;;;;;;14.70;50.65;101909.59;4951338;28;20118;-68
2022/05/03 07:13:27;;;;;;;7.65;4.65;;;;;;;15.32;51.72;101906.50;4957451;28;20042;-68
2022/05/03 07:15:56;;;;;;;6.97;5.30;;;;;;;15.88;49.75;101904.53;4975217;28;20038;-68
2022/05/03 07:23:52;;;;;;;6.93;4.65;;;;;;;15.06;49.43;101914.44;4975502;28;20042;-68
2022/05/03 07:26:18;;;;;;;6.32;4.75;;;;;;;14.74;48.22;101911.13;4973709;28;20051;-68
2022/05/03 07:28:44;;;;;;;6.45;4.40;;;;;;;15.19;47.32;101911.81;4974802;28;20042;-68
2022/05/03 07:31:09;;;;;;;7.40;4.32;;;;;;;15.62;51.04;101912.50;4975376;28;20589;-67
2022/05/03 07:33:35;;;;;;;5.13;3.88;;;;;;;14.99;46.41;101918.47;4974573;28;20054;-68
2022/05/03 07:36:03;;;;;;;7.93;4.72;;;;;;;15.13;49.11;101921.13;4974455;28;20050;-68
2022/05/03 07:38:29;;;;;;;6.63;4.22;;;;;;;14.43;46.44;101920.22;4973816;28;20045;-68
2022/05/03 07:40:56;;;;;;;8.32;4.35;;;;;;;14.15;47.92;101929.09;4974392;28;20049;-68
2022/05/03 07:43:22;;;;;;;8.38;4.80;;;;;;;15.14;48.22;101920.16;4973812;28;20042;-67
2022/05/03 07:45:47;;;;;;;8.00;4.68;;;;;;;15.80;46.72;101913.09;4974535;28;20758;-69
2022/05/03 07:48:12;;;;;;;7.75;4.45;;;;;;;15.76;45.27;101922.34;4973547;28;20043;-69
2022/05/03 07:50:38;;;;;;;9.18;4.85;;;;;;;14.49;46.73;101928.78;4974659;28;20113;-67
2022/05/03 07:53:03;;;;;;;7.43;4.93;;;;;;;14.70;49.33;101931.06;4973556;28;20042;-68
2022/05/03 07:55:29;;;;;;;6.60;4.25;;;;;;;14.43;48.42;101928.28;4956309;28;20042;-67
2022/05/03 07:57:54;;;;;;;5.80;4.20;;;;;;;14.99;48.48;101935.44;4974890;28;20510;-67
2022/05/03 08:00:20;;;;;;;7.93;5.07;;;;;;;15.53;47.63;101929.25;4973867;28;20038;-68
2022/05/03 08:02:45;;;;;;;7.95;4.38;;;;;;;15.97;46.04;101933.50;4974769;28;20568;-67
2022/05/03 08:05:11;;;;;;;7.00;4.88;;;;;;;15.75;45.87;101929.53;4972411;28;20078;-67
2022/05/03 08:07:36;;;;;;;6.57;4.75;;;;;;;15.28;47.63;101943.44;4973860;28;20506;-67
2022/05/03 08:10:05;;;;;;;10.68;5.57;;;;;;;15.83;47.00;101929.03;4959984;28;20832;-67
2022/05/03 08:12:31;;;;;;;7.50;5.68;;;;;;;16.00;47.54;101926.03;4953644;28;20039;-67
2022/05/03 08:14:57;;;;;;;16.27;6.03;;;;;;;15.60;48.71;101929.69;4953948;28;20045;-67
2022/05/03 08:17:27;;;;;;;10.65;5.40;;;;;;;15.93;46.42;101927.44;4952806;28;20495;-67
2022/05/03 08:19:53;;;;;;;8.02;6.05;;;;;;;15.60;47.16;101930.56;4953250;28;20053;-67
2022/05/03 08:22:18;;;;;;;6.03;4.18;;;;;;;16.15;44.87;101917.88;4955878;28;20384;-67
2022/05/03 08:24:44;;;;;;;7.45;5.15;;;;;;;17.10;46.00;101925.44;4973949;28;20049;-67
2022/05/03 08:27:09;;;;;;;8.50;4.68;;;;;;;15.88;47.84;101926.03;4973755;28;20921;-67
2022/05/03 08:29:35;;;;;;;8.57;5.28;;;;;;;16.34;48.27;101921.00;4973847;28;20038;-67
2022/05/03 08:32:01;;;;;;;7.28;5.15;;;;;;;15.34;47.64;101940.34;4973566;28;20039;-67
2022/05/03 08:34:27;;;;;;;8.15;5.25;;;;;;;15.87;49.37;101935.09;4972922;28;20042;-66
2022/05/03 08:42:21;;;;;;;8.32;5.00;;;;;;;17.60;44.62;101924.34;4973699;28;20710;-67
2022/05/03 08:44:46;;;;;;;7.22;4.72;;;;;;;15.99;44.50;101928.84;4973957;28;20042;-67
2022/05/03 08:47:14;;;;;;;9.25;5.70;;;;;;;16.55;45.60;101924.88;4973459;28;20038;-67
2022/05/03 08:50:11;;;;;;;7.38;4.82;;;;;;;16.02;48.50;101926.81;4973106;28;20627;-67
2022/05/03 08:52:50;;;;;;;9.38;5.10;;;;;;;16.12;48.37;101931.56;4972382;28;20978;-67
2022/05/03 08:55:16;;;;;;;8.02;5.68;;;;;;;16.63;44.76;101931.56;4954712;28;20089;-67
2022/05/03 08:57:43;;;;;;;6.53;4.70;;;;;;;16.59;44.85;101936.28;4956086;28;20160;-67
2022/05/03 09:00:11;;;;;;;9.43;5.45;;;;;;;15.66;47.84;101940.94;4973200;28;20559;-67
2022/05/03 09:02:48;;;;;;;9.80;5.72;;;;;;;15.47;48.48;101940.41;4973085;28;20039;-67
2022/05/03 09:05:15;;;;;;;8.20;5.30;;;;;;;16.02;47.46;101936.72;4972007;28;20070;-67
2022/05/03 09:07:56;;;;;;;9.80;5.65;;;;;;;15.99;51.08;101931.53;4974284;28;20035;-67
2022/05/03 09:10:32;;;;;;;10.10;5.65;;;;;;;15.82;48.85;101940.78;4973874;28;20512;-67
2022/05/03 09:13:22;;;;;;;8.63;5.90;;;;;;;15.84;50.47;101938.81;4973295;28;20046;-67
2022/05/03 09:16:15;;;;;;;9.85;6.40;;;;;;;15.97;47.62;101928.09;4974404;28;20030;-67
2022/05/03 09:18:42;;;;;;;9.55;6.00;;;;;;;17.19;45.20;101932.84;4973710;28;20192;-67
2022/05/03 09:24:13;;;;;;;8.48;5.63;;;;;;;16.76;47.92;101933.28;4954432;28;20830;-67
2022/05/03 09:26:39;;;;;;;11.52;5.97;;;;;;;17.12;44.23;101928.91;4954264;28;20101;-67
2022/05/03 09:29:12;;;;;;;9.00;6.25;;;;;;;17.30;45.43;101926.66;4956156;28;20046;-67
2022/05/03 09:31:47;;;;;;;12.88;6.70;;;;;;;17.37;48.44;101927.06;4958510;28;20039;-67
2022/05/03 09:34:25;;;;;;;13.32;7.03;;;;;;;16.52;48.20;101932.31;4955715;28;20056;-67
2022/05/03 09:36:59;;;;;;;9.13;6.22;;;;;;;16.88;48.54;101933.38;4957550;28;20034;-67
2022/05/03 09:39:27;;;;;;;10.82;6.63;;;;;;;16.60;47.34;101923.69;4968715;28;20038;-68
2022/05/03 09:42:18;;;;;;;10.73;6.90;;;;;;;17.70;49.58;101923.66;4977409;28;20054;-68
2022/05/03 09:45:02;;;;;;;12.90;7.85;;;;;;;18.14;44.55;101916.72;4977324;28;20053;-69
2022/05/03 09:47:29;;;;;;;9.95;7.00;;;;;;;18.07;47.98;101921.72;4976991;28;20121;-67
2022/05/03 09:49:55;;;;;;;11.07;7.40;;;;;;;18.63;44.79;101919.09;4959476;28;20047;-67
2022/05/03 09:52:36;;;;;;;15.20;7.28;;;;;;;18.86;44.47;101911.84;4976806;28;20458;-69
2022/05/03 09:55:09;;;;;;;9.38;7.03;;;;;;;17.61;46.17;101917.97;4976864;28;20125;-66
2022/05/03 09:57:37;;;;;;;11.95;7.15;;;;;;;17.90;47.39;101914.06;4977374;28;20050;-68
2022/05/03 10:00:05;;;;;;;11.13;7.50;;;;;;;18.30;49.33;101919.91;4976616;28;20159;-68
2022/05/03 10:02:43;;;;;;;13.15;8.18;;;;;;;17.36;47.72;101915.41;4977214;28;20050;-68
2022/05/03 10:05:10;;;;;;;14.43;9.15;;;;;;;17.98;46.90;101911.66;4976838;28;20070;-69
2022/05/03 10:07:37;;;;;;;12.73;8.48;;;;;;;17.99;48.68;101908.81;4975952;28;20070;-69
2022/05/03 10:10:07;;;;;;;11.93;7.90;;;;;;;18.09;50.75;101917.91;4976111;28;21240;-68
2022/05/03 10:12:35;;;;;;;14.75;9.20;;;;;;;17.51;46.99;101911.56;4976091;28;20042;-68
2022/05/03 10:15:01;;;;;;;16.67;9.40;;;;;;;17.02;48.46;101914.38;4958395;28;20042;-68
2022/05/03 10:20:40;;;;;;;15.32;9.48;;;;;;;17.08;49.23;101922.88;4956866;28;20856;-69
2022/05/03 10:23:33;;;;;;;13.38;8.43;;;;;;;17.03;50.82;101913.41;4955954;28;20078;-68
2022/05/03 10:26:08;;;;;;;15.85;9.50;;;;;;;17.27;47.56;101908.91;4946984;28;20066;-69
2022/05/03 10:29:05;;;;;;;15.73;10.27;;;;;;;18.35;50.06;101901.50;4955981;28;20113;-68
2022/05/03 10:31:31;;;;;;;18.13;10.40;;;;;;;17.49;52.11;101904.56;4971614;28;20037;-66
2022/05/03 10:33:59;;;;;;;19.27;10.23;;;;;;;17.67;52.57;101900.50;4956280;28;20037;-66
2022/05/03 10:36:30;;;;;;;15.25;9.85;;;;;;;18.18;46.97;101902.84;4973580;28;20046;-66
2022/05/03 10:39:17;;;;;;;16.73;10.60;;;;;;;18.48;49.16;101896.00;4973746;28;20038;-66
2022/05/03 10:42:10;;;;;;;17.75;10.55;;;;;;;18.25;49.74;101897.81;4975110;28;20077;-67
2022/05/03 10:44:39;;;;;;;18.50;10.43;;;;;;;18.82;48.75;101892.31;4975234;28;20049;-66
2022/05/03 10:47:05;;;;;;;14.13;9.50;;;;;;;17.58;49.43;101899.34;4956753;28;20042;-66
2022/05/03 10:49:30;;;;;;;16.08;9.30;;;;;;;17.25;53.26;101902.72;4957966;28;20076;-66
2022/05/03 10:51:56;;;;;;;15.23;9.32;;;;;;;18.44;53.29;101899.94;4957985;28;20042;-68
2022/05/03 10:54:21;;;;;;;12.88;8.27;;;;;;;19.37;50.25;101885.03;4974664;28;20042;-67
2022/05/03 10:57:07;;;;;;;16.35;10.70;;;;;;;17.75;49.78;101899.91;4975838;28;20314;-66
2022/05/03 10:59:47;;;;;;;16.33;9.40;;;;;;;17.90;52.80;101895.19;4974419;28;20777;-68
2022/05/03 11:02:12;;;;;;;11.38;7.22;;;;;;;17.19;52.24;101891.56;4974137;28;20066;-68
2022/05/03 11:05:14;;;;;;;13.48;7.82;;;;;;;16.91;51.06;101881.94;4974400;28;20046;-68
2022/05/03 11:07:39;;;;;;;13.75;8.30;;;;;;;18.56;49.26;101885.44;4973340;28;20046;-68
2022/05/03 11:10:43;;;;;;;14.45;9.02;;;;;;;18.02;49.97;101878.91;4973324;28;20038;-68
2022/05/03 11:13:40;;;;;;;14.15;8.15;;;;;;;18.33;48.47;101877.34;4974457;28;20801;-68
2022/05/03 11:16:23;;;;;;;16.73;7.90;;;;;;;18.18;47.61;101865.06;4972984;28;20042;-67
2022/05/03 11:18:49;;;;;;;11.68;7.30;;;;;;;18.15;48.31;101864.44;4956875;28;20153;-68
2022/05/03 11:21:16;;;;;;;10.48;6.47;;;;;;;18.07;50.03;101863.22;4974760;28;20050;-68
2022/05/03 11:23:54;;;;;;;13.43;5.78;;;;;;;17.12;48.83;101872.31;4975013;28;20312;-68
2022/05/03 11:26:22;;;;;;;7.32;4.43;;;;;;;17.47;49.63;101863.34;4956135;28;20380;-67
2022/05/03 11:28:51;;;;;;;6.68;4.32;;;;;;;18.41;46.48;101855.09;4974070;28;20043;-67
2022/05/03 11:31:20;;;;;;;6.90;4.22;;;;;;;18.61;45.74;101853.50;4956236;28;20034;-67
2022/05/03 11:33:58;;;;;;;9.77;5.72;;;;;;;18.58;49.20;101846.50;4974612;28;20047;-67
2022/05/03 11:36:25;;;;;;;10.30;6.20;;;;;;;18.17;51.62;101857.06;4974632;28;20804;-66
2022/05/03 11:38:52;;;;;;;10.18;6.47;;;;;;;18.08;51.15;101858.66;4975006;28;20030;-68
2022/05/03 11:41:21;;;;;;;12.88;7.45;;;;;;;17.30;50.49;101854.72;4975789;28;20046;-69
2022/05/03 11:43:47;;;;;;;12.52;7.57;;;;;;;18.48;48.92;101850.09;4975532;28;20197;-67
2022/05/03 11:46:18;;;;;;;13.02;8.07;;;;;;;18.91;51.76;101842.06;4972672;28;20108;-68
2022/05/03 11:48:45;;;;;;;11.27;7.57;;;;;;;17.77;51.41;101844.00;4974495;28;20046;-68
2022/05/03 11:56:45;;;;;;;8.90;5.75;;;;;;;18.18;45.71;101838.06;4975414;28;20867;-68
2022/05/03 11:59:12;;;;;;;8.52;5.18;;;;;;;17.85;48.99;101841.56;4974367;28;20835;-68
2022/05/03 12:01:37;;;;;;;10.57;5.18;;;;;;;18.32;46.66;101835.13;4974018;28;20038;-68
2022/05/03 12:04:05;;;;;;;8.57;5.38;;;;;;;18.18;46.85;101837.19;4973689;28;20833;-68
2022/05/03 12:06:45;;;;;;;9.35;5.15;;;;;;;18.48;48.89;101831.19;4974425;28;20117;-68
2022/05/03 12:09:18;;;;;;;11.25;7.30;;;;;;;18.22;48.37;101836.81;4973802;28;20062;-68
2022/05/03 12:14:44;;;;;;;10.50;5.40;;;;;;;18.41;48.82;101821.84;4974531;28;20049;-68
2022/05/03 12:17:09;;;;;;;8.18;4.50;;;;;;;18.76;48.04;101825.25;4973479;28;20038;-69
2022/05/03 12:19:37;;;;;;;7.38;5.05;;;;;;;18.19;44.49;101814.63;4972131;28;20683;-68